sensor_id;sensor_type;location;lat;lon;timestamp;P1;durP1;ratioP1;P2;durP2;ratioP2
19006;SDS011;9636;47.382;8.480;2024-03-23T00:55:17;2.37;;;2.17;;
19006;SDS011;9636;47.382;8.480;2024-03-23T00:57:43;3.67;;;2.30;;
19006;SDS011;9636;47.382;8.480;2024-03-23T01:00:09;3.33;;;2.33;;
19006;SDS011;9636;47.382;8.480;2024-03-23T01:02:37;3.10;;;2.20;;
19006;SDS011;9636;47.382;8.480;2024-03-23T01:05:03;5.07;;;2.33;;
19006;SDS011;9636;47.382;8.480;2024-03-23T01:07:30;2.57;;;2.17;;
19006;SDS011;9636;47.382;8.480;2024-03-23T01:09:57;2.77;;;2.10;;
19006;SDS011;9636;47.382;8.480;2024-03-23T01:12:24;4.13;;;2.37;;
19006;SDS011;9636;47.382;8.480;2024-03-23T01:14:50;3.33;;;2.33;;
19006;SDS011;9636;47.382;8.480;2024-03-23T01:17:17;3.93;;;2.13;;
19006;SDS011;9636;47.382;8.480;2024-03-23T01:19:42;3.73;;;2.10;;
19006;SDS011;9636;47.382;8.480;2024-03-23T01:22:09;3.70;;;2.20;;
19006;SDS011;9636;47.382;8.480;2024-03-23T01:24:35;2.73;;;2.40;;
19006;SDS011;9636;47.382;8.480;2024-03-23T01:27:04;2.93;;;2.33;;
19006;SDS011;9636;47.382;8.480;2024-03-23T01:29:30;2.53;;;1.80;;
19006;SDS011;9636;47.382;8.480;2024-03-23T01:31:56;3.77;;;2.43;;
19006;SDS011;9636;47.382;8.480;2024-03-23T01:34:22;3.07;;;2.07;;
19006;SDS011;9636;47.382;8.480;2024-03-23T01:36:50;3.20;;;2.10;;
19006;SDS011;9636;47.382;8.480;2024-03-23T01:39:15;3.27;;;2.07;;
19006;SDS011;9636;47.382;8.480;2024-03-23T01:41:42;3.87;;;2.37;;
19006;SDS011;9636;47.382;8.480;2024-03-23T01:44:09;3.83;;;2.13;;
19006;SDS011;9636;47.382;8.480;2024-03-23T01:46:37;2.33;;;2.07;;
19006;SDS011;9636;47.382;8.480;2024-03-23T01:49:03;3.73;;;2.20;;
19006;SDS011;9636;47.382;8.480;2024-03-23T01:51:31;3.37;;;2.00;;
19006;SDS011;9636;47.382;8.480;2024-03-23T01:53:58;3.63;;;2.10;;
19006;SDS011;9636;47.382;8.480;2024-03-23T01:56:28;3.20;;;2.10;;
19006;SDS011;9636;47.382;8.480;2024-03-23T01:58:55;2.90;;;2.30;;
19006;SDS011;9636;47.382;8.480;2024-03-23T02:01:23;5.43;;;2.43;;
19006;SDS011;9636;47.382;8.480;2024-03-23T02:03:49;3.30;;;2.20;;
19006;SDS011;9636;47.382;8.480;2024-03-23T02:06:15;6.23;;;2.13;;
19006;SDS011;9636;47.382;8.480;2024-03-23T02:08:41;3.37;;;2.20;;
19006;SDS011;9636;47.382;8.480;2024-03-23T02:11:10;5.80;;;2.33;;
19006;SDS011;9636;47.382;8.480;2024-03-23T02:13:35;2.50;;;2.03;;
19006;SDS011;9636;47.382;8.480;2024-03-23T02:16:02;3.20;;;2.10;;
19006;SDS011;9636;47.382;8.480;2024-03-23T02:18:31;3.10;;;2.23;;
19006;SDS011;9636;47.382;8.480;2024-03-23T02:20:58;5.03;;;2.13;;
19006;SDS011;9636;47.382;8.480;2024-03-23T02:23:25;2.67;;;1.90;;
19006;SDS011;9636;47.382;8.480;2024-03-23T02:25:52;2.57;;;2.00;;
19006;SDS011;9636;47.382;8.480;2024-03-23T02:28:18;3.87;;;2.30;;
19006;SDS011;9636;47.382;8.480;2024-03-23T02:30:45;2.90;;;2.10;;
19006;SDS011;9636;47.382;8.480;2024-03-23T02:33:11;3.53;;;2.07;;
19006;SDS011;9636;47.382;8.480;2024-03-23T02:35:38;2.13;;;1.90;;
19006;SDS011;9636;47.382;8.480;2024-03-23T02:38:03;3.40;;;2.00;;
19006;SDS011;9636;47.382;8.480;2024-03-23T02:40:32;2.53;;;1.97;;
19006;SDS011;9636;47.382;8.480;2024-03-23T02:42:58;2.43;;;1.90;;
19006;SDS011;9636;47.382;8.480;2024-03-23T02:45:24;3.20;;;1.90;;
19006;SDS011;9636;47.382;8.480;2024-03-23T02:47:51;3.73;;;2.10;;
19006;SDS011;9636;47.382;8.480;2024-03-23T02:50:17;3.17;;;1.93;;
19006;SDS011;9636;47.382;8.480;2024-03-23T02:52:44;2.83;;;2.20;;
19006;SDS011;9636;47.382;8.480;2024-03-23T02:55:10;2.53;;;2.20;;
19006;SDS011;9636;47.382;8.480;2024-03-23T02:57:38;2.80;;;2.00;;
19006;SDS011;9636;47.382;8.480;2024-03-23T03:00:04;5.33;;;2.00;;
19006;SDS011;9636;47.382;8.480;2024-03-23T03:02:32;5.53;;;2.23;;
19006;SDS011;9636;47.382;8.480;2024-03-23T03:04:58;2.93;;;1.90;;
19006;SDS011;9636;47.382;8.480;2024-03-23T03:07:25;3.50;;;1.67;;
19006;SDS011;9636;47.382;8.480;2024-03-23T03:09:51;4.67;;;1.70;;
19006;SDS011;9636;47.382;8.480;2024-03-23T03:12:17;2.00;;;1.80;;
19006;SDS011;9636;47.382;8.480;2024-03-23T03:14:45;4.97;;;1.90;;
19006;SDS011;9636;47.382;8.480;2024-03-23T03:17:12;2.53;;;2.00;;
19006;SDS011;9636;47.382;8.480;2024-03-23T03:19:37;4.57;;;1.97;;
19006;SDS011;9636;47.382;8.480;2024-03-23T03:22:04;2.13;;;1.80;;
19006;SDS011;9636;47.382;8.480;2024-03-23T03:24:30;3.10;;;2.00;;
19006;SDS011;9636;47.382;8.480;2024-03-23T03:26:57;5.87;;;2.00;;
19006;SDS011;9636;47.382;8.480;2024-03-23T03:29:23;3.10;;;1.97;;
19006;SDS011;9636;47.382;8.480;2024-03-23T03:31:52;3.83;;;1.90;;
19006;SDS011;9636;47.382;8.480;2024-03-23T03:34:17;3.43;;;1.60;;
19006;SDS011;9636;47.382;8.480;2024-03-23T03:36:44;2.20;;;1.90;;
19006;SDS011;9636;47.382;8.480;2024-03-23T03:39:10;3.67;;;1.70;;
19006;SDS011;9636;47.382;8.480;2024-03-23T03:41:37;3.20;;;2.10;;
19006;SDS011;9636;47.382;8.480;2024-03-23T03:44:03;3.23;;;2.03;;
19006;SDS011;9636;47.382;8.480;2024-03-23T03:46:30;4.90;;;1.90;;
19006;SDS011;9636;47.382;8.480;2024-03-23T03:48:57;2.83;;;2.13;;
19006;SDS011;9636;47.382;8.480;2024-03-23T03:51:24;3.87;;;1.93;;
19006;SDS011;9636;47.382;8.480;2024-03-23T03:53:50;5.20;;;2.30;;
19006;SDS011;9636;47.382;8.480;2024-03-23T03:56:17;2.53;;;1.87;;
19006;SDS011;9636;47.382;8.480;2024-03-23T03:58:44;4.97;;;2.10;;
19006;SDS011;9636;47.382;8.480;2024-03-23T04:01:11;2.60;;;1.87;;
19006;SDS011;9636;47.382;8.480;2024-03-23T04:03:37;2.93;;;2.07;;
19006;SDS011;9636;47.382;8.480;2024-03-23T04:06:06;2.43;;;1.93;;
19006;SDS011;9636;47.382;8.480;2024-03-23T04:08:32;5.30;;;1.97;;
19006;SDS011;9636;47.382;8.480;2024-03-23T04:10:58;2.40;;;2.20;;
19006;SDS011;9636;47.382;8.480;2024-03-23T04:13:24;2.90;;;2.10;;
19006;SDS011;9636;47.382;8.480;2024-03-23T04:15:53;3.27;;;2.27;;
19006;SDS011;9636;47.382;8.480;2024-03-23T04:18:19;2.73;;;2.20;;
19006;SDS011;9636;47.382;8.480;2024-03-23T04:20:46;3.63;;;2.23;;
19006;SDS011;9636;47.382;8.480;2024-03-23T04:23:13;2.40;;;2.10;;
19006;SDS011;9636;47.382;8.480;2024-03-23T04:25:40;2.33;;;2.10;;
19006;SDS011;9636;47.382;8.480;2024-03-23T04:28:06;2.83;;;2.10;;
19006;SDS011;9636;47.382;8.480;2024-03-23T04:30:33;3.20;;;2.20;;
19006;SDS011;9636;47.382;8.480;2024-03-23T04:32:59;3.90;;;2.20;;
19006;SDS011;9636;47.382;8.480;2024-03-23T04:35:26;2.63;;;2.20;;
19006;SDS011;9636;47.382;8.480;2024-03-23T04:37:52;2.30;;;2.10;;
19006;SDS011;9636;47.382;8.480;2024-03-23T04:40:22;2.93;;;2.10;;
19006;SDS011;9636;47.382;8.480;2024-03-23T04:42:48;3.00;;;2.13;;
19006;SDS011;9636;47.382;8.480;2024-03-23T04:45:15;3.27;;;2.07;;
19006;SDS011;9636;47.382;8.480;2024-03-23T04:47:42;5.30;;;2.40;;
19006;SDS011;9636;47.382;8.480;2024-03-23T04:50:08;3.57;;;2.20;;
19006;SDS011;9636;47.382;8.480;2024-03-23T04:52:36;2.80;;;2.37;;
19006;SDS011;9636;47.382;8.480;2024-03-23T04:55:03;5.60;;;2.17;;
19006;SDS011;9636;47.382;8.480;2024-03-23T04:57:31;2.70;;;2.03;;
19006;SDS011;9636;47.382;8.480;2024-03-23T04:59:58;3.00;;;2.30;;
19006;SDS011;9636;47.382;8.480;2024-03-23T05:02:23;4.33;;;2.10;;
19006;SDS011;9636;47.382;8.480;2024-03-23T05:04:51;5.17;;;2.30;;
19006;SDS011;9636;47.382;8.480;2024-03-23T05:07:16;2.93;;;2.03;;
19006;SDS011;9636;47.382;8.480;2024-03-23T05:09:43;3.30;;;2.20;;
19006;SDS011;9636;47.382;8.480;2024-03-23T05:12:09;3.73;;;2.43;;
19006;SDS011;9636;47.382;8.480;2024-03-23T05:14:37;4.10;;;2.17;;
19006;SDS011;9636;47.382;8.480;2024-03-23T05:17:03;3.30;;;2.30;;
19006;SDS011;9636;47.382;8.480;2024-03-23T05:19:30;6.20;;;2.27;;
19006;SDS011;9636;47.382;8.480;2024-03-23T05:21:56;3.07;;;2.43;;
19006;SDS011;9636;47.382;8.480;2024-03-23T05:24:22;4.77;;;2.20;;
19006;SDS011;9636;47.382;8.480;2024-03-23T05:26:48;20.37;;;2.93;;
19006;SDS011;9636;47.382;8.480;2024-03-23T05:29:15;7.87;;;2.80;;
19006;SDS011;9636;47.382;8.480;2024-03-23T05:31:43;6.10;;;3.13;;
19006;SDS011;9636;47.382;8.480;2024-03-23T05:34:10;4.67;;;3.40;;
19006;SDS011;9636;47.382;8.480;2024-03-23T05:36:36;8.30;;;3.20;;
19006;SDS011;9636;47.382;8.480;2024-03-23T05:39:03;6.17;;;3.07;;
19006;SDS011;9636;47.382;8.480;2024-03-23T05:41:29;6.33;;;3.50;;
19006;SDS011;9636;47.382;8.480;2024-03-23T05:43:56;4.90;;;3.40;;
19006;SDS011;9636;47.382;8.480;2024-03-23T05:46:21;9.87;;;4.00;;
19006;SDS011;9636;47.382;8.480;2024-03-23T05:48:49;4.87;;;4.00;;
19006;SDS011;9636;47.382;8.480;2024-03-23T05:51:16;4.70;;;4.30;;
19006;SDS011;9636;47.382;8.480;2024-03-23T05:53:42;6.27;;;4.20;;
19006;SDS011;9636;47.382;8.480;2024-03-23T05:56:08;4.07;;;3.53;;
19006;SDS011;9636;47.382;8.480;2024-03-23T05:58:35;5.80;;;3.50;;
19006;SDS011;9636;47.382;8.480;2024-03-23T06:01:01;5.40;;;3.10;;
19006;SDS011;9636;47.382;8.480;2024-03-23T06:03:29;4.03;;;3.23;;
19006;SDS011;9636;47.382;8.480;2024-03-23T06:05:56;6.17;;;3.50;;
19006;SDS011;9636;47.382;8.480;2024-03-23T06:08:23;5.23;;;3.73;;
19006;SDS011;9636;47.382;8.480;2024-03-23T06:10:49;6.83;;;3.23;;
19006;SDS011;9636;47.382;8.480;2024-03-23T06:13:16;5.33;;;3.87;;
19006;SDS011;9636;47.382;8.480;2024-03-23T06:15:42;6.93;;;3.77;;
19006;SDS011;9636;47.382;8.480;2024-03-23T06:18:11;4.33;;;3.87;;
19006;SDS011;9636;47.382;8.480;2024-03-23T06:20:37;3.87;;;3.40;;
19006;SDS011;9636;47.382;8.480;2024-03-23T06:23:05;27.60;;;4.53;;
19006;SDS011;9636;47.382;8.480;2024-03-23T06:25:31;5.57;;;4.50;;
19006;SDS011;9636;47.382;8.480;2024-03-23T06:27:58;5.53;;;4.27;;
19006;SDS011;9636;47.382;8.480;2024-03-23T06:30:24;5.43;;;4.23;;
19006;SDS011;9636;47.382;8.480;2024-03-23T06:32:52;7.07;;;4.83;;
19006;SDS011;9636;47.382;8.480;2024-03-23T06:35:18;8.17;;;5.33;;
19006;SDS011;9636;47.382;8.480;2024-03-23T06:37:45;5.33;;;4.80;;
19006;SDS011;9636;47.382;8.480;2024-03-23T06:40:12;7.47;;;5.07;;
19006;SDS011;9636;47.382;8.480;2024-03-23T06:42:39;6.30;;;4.93;;
19006;SDS011;9636;47.382;8.480;2024-03-23T06:45:05;9.37;;;5.40;;
19006;SDS011;9636;47.382;8.480;2024-03-23T06:47:32;13.03;;;5.93;;
19006;SDS011;9636;47.382;8.480;2024-03-23T06:49:59;8.93;;;5.10;;
19006;SDS011;9636;47.382;8.480;2024-03-23T06:52:27;8.03;;;5.20;;
19006;SDS011;9636;47.382;8.480;2024-03-23T06:54:53;7.93;;;5.30;;
19006;SDS011;9636;47.382;8.480;2024-03-23T06:57:21;13.47;;;5.70;;
19006;SDS011;9636;47.382;8.480;2024-03-23T06:59:47;7.13;;;5.10;;
19006;SDS011;9636;47.382;8.480;2024-03-23T07:02:14;7.60;;;5.37;;
19006;SDS011;9636;47.382;8.480;2024-03-23T07:04:41;5.83;;;4.80;;
19006;SDS011;9636;47.382;8.480;2024-03-23T07:07:08;6.60;;;5.30;;
19006;SDS011;9636;47.382;8.480;2024-03-23T07:09:34;8.30;;;5.13;;
19006;SDS011;9636;47.382;8.480;2024-03-23T07:12:02;9.60;;;5.47;;
19006;SDS011;9636;47.382;8.480;2024-03-23T07:14:31;7.73;;;5.33;;
19006;SDS011;9636;47.382;8.480;2024-03-23T07:16:58;6.40;;;4.83;;
19006;SDS011;9636;47.382;8.480;2024-03-23T07:19:23;4.77;;;3.80;;
19006;SDS011;9636;47.382;8.480;2024-03-23T07:21:50;3.63;;;3.27;;
19006;SDS011;9636;47.382;8.480;2024-03-23T07:24:16;4.17;;;3.17;;
19006;SDS011;9636;47.382;8.480;2024-03-23T07:26:43;3.63;;;2.90;;
19006;SDS011;9636;47.382;8.480;2024-03-23T07:29:09;3.53;;;2.90;;
19006;SDS011;9636;47.382;8.480;2024-03-23T07:31:37;3.87;;;3.13;;
19006;SDS011;9636;47.382;8.480;2024-03-23T07:34:03;2.83;;;2.47;;
19006;SDS011;9636;47.382;8.480;2024-03-23T07:36:30;2.77;;;2.43;;
19006;SDS011;9636;47.382;8.480;2024-03-23T07:38:56;4.03;;;2.40;;
19006;SDS011;9636;47.382;8.480;2024-03-23T07:41:23;2.50;;;2.17;;
19006;SDS011;9636;47.382;8.480;2024-03-23T07:43:49;3.57;;;2.43;;
19006;SDS011;9636;47.382;8.480;2024-03-23T07:46:16;2.53;;;2.30;;
19006;SDS011;9636;47.382;8.480;2024-03-23T07:48:45;2.47;;;2.27;;
19006;SDS011;9636;47.382;8.480;2024-03-23T07:51:15;3.77;;;2.40;;
19006;SDS011;9636;47.382;8.480;2024-03-23T07:53:42;1.97;;;1.70;;
19006;SDS011;9636;47.382;8.480;2024-03-23T07:56:10;2.90;;;1.90;;
19006;SDS011;9636;47.382;8.480;2024-03-23T07:58:36;1.33;;;1.23;;
19006;SDS011;9636;47.382;8.480;2024-03-23T08:01:03;1.13;;;1.03;;
19006;SDS011;9636;47.382;8.480;2024-03-23T08:03:30;0.80;;;0.60;;
19006;SDS011;9636;47.382;8.480;2024-03-23T08:05:59;0.60;;;0.60;;
19006;SDS011;9636;47.382;8.480;2024-03-23T08:08:32;1.17;;;0.60;;
19006;SDS011;9636;47.382;8.480;2024-03-23T08:10:59;0.93;;;0.57;;
19006;SDS011;9636;47.382;8.480;2024-03-23T08:13:24;0.70;;;0.50;;
19006;SDS011;9636;47.382;8.480;2024-03-23T08:15:51;0.40;;;0.40;;
19006;SDS011;9636;47.382;8.480;2024-03-23T08:18:18;0.47;;;0.30;;
19006;SDS011;9636;47.382;8.480;2024-03-23T08:20:44;2.37;;;0.40;;
19006;SDS011;9636;47.382;8.480;2024-03-23T08:23:12;1.70;;;0.40;;
19006;SDS011;9636;47.382;8.480;2024-03-23T08:25:38;0.50;;;0.50;;
19006;SDS011;9636;47.382;8.480;2024-03-23T08:28:05;2.27;;;0.60;;
19006;SDS011;9636;47.382;8.480;2024-03-23T08:30:34;0.83;;;0.40;;
19006;SDS011;9636;47.382;8.480;2024-03-23T08:33:01;1.13;;;0.67;;
19006;SDS011;9636;47.382;8.480;2024-03-23T08:35:27;0.90;;;0.40;;
19006;SDS011;9636;47.382;8.480;2024-03-23T08:37:54;0.87;;;0.50;;
19006;SDS011;9636;47.382;8.480;2024-03-23T08:40:21;1.70;;;0.57;;
19006;SDS011;9636;47.382;8.480;2024-03-23T08:42:48;1.43;;;0.70;;
19006;SDS011;9636;47.382;8.480;2024-03-23T08:45:14;3.47;;;1.00;;
19006;SDS011;9636;47.382;8.480;2024-03-23T08:47:40;0.97;;;0.50;;
19006;SDS011;9636;47.382;8.480;2024-03-23T08:50:08;2.07;;;0.93;;
19006;SDS011;9636;47.382;8.480;2024-03-23T08:52:34;2.73;;;0.90;;
19006;SDS011;9636;47.382;8.480;2024-03-23T08:55:00;1.43;;;0.83;;
19006;SDS011;9636;47.382;8.480;2024-03-23T08:57:28;2.80;;;0.83;;
19006;SDS011;9636;47.382;8.480;2024-03-23T08:59:54;2.37;;;1.20;;
19006;SDS011;9636;47.382;8.480;2024-03-23T09:02:20;4.47;;;1.10;;
19006;SDS011;9636;47.382;8.480;2024-03-23T09:04:47;7.33;;;1.63;;
19006;SDS011;9636;47.382;8.480;2024-03-23T09:07:13;4.27;;;1.20;;
19006;SDS011;9636;47.382;8.480;2024-03-23T09:09:40;3.83;;;1.33;;
19006;SDS011;9636;47.382;8.480;2024-03-23T09:12:06;5.20;;;1.37;;
19006;SDS011;9636;47.382;8.480;2024-03-23T09:14:34;3.60;;;1.20;;
19006;SDS011;9636;47.382;8.480;2024-03-23T09:17:00;3.20;;;1.10;;
19006;SDS011;9636;47.382;8.480;2024-03-23T09:19:28;5.07;;;1.47;;
19006;SDS011;9636;47.382;8.480;2024-03-23T09:21:53;4.40;;;1.53;;
19006;SDS011;9636;47.382;8.480;2024-03-23T09:24:20;6.07;;;2.00;;
19006;SDS011;9636;47.382;8.480;2024-03-23T09:26:46;6.37;;;1.70;;
19006;SDS011;9636;47.382;8.480;2024-03-23T09:29:13;4.47;;;1.40;;
19006;SDS011;9636;47.382;8.480;2024-03-23T09:31:40;5.33;;;1.50;;
19006;SDS011;9636;47.382;8.480;2024-03-23T09:34:07;5.10;;;1.33;;
19006;SDS011;9636;47.382;8.480;2024-03-23T09:39:00;6.70;;;1.77;;
19006;SDS011;9636;47.382;8.480;2024-03-23T09:41:26;3.43;;;1.50;;
19006;SDS011;9636;47.382;8.480;2024-03-23T09:43:52;5.47;;;1.73;;
19006;SDS011;9636;47.382;8.480;2024-03-23T09:46:19;3.80;;;1.63;;
19006;SDS011;9636;47.382;8.480;2024-03-23T09:48:47;4.07;;;1.40;;
19006;SDS011;9636;47.382;8.480;2024-03-23T09:51:13;5.33;;;1.50;;
19006;SDS011;9636;47.382;8.480;2024-03-23T09:53:40;6.13;;;1.80;;
19006;SDS011;9636;47.382;8.480;2024-03-23T09:56:07;5.40;;;1.70;;
19006;SDS011;9636;47.382;8.480;2024-03-23T09:58:34;4.30;;;1.30;;
19006;SDS011;9636;47.382;8.480;2024-03-23T10:01:01;7.77;;;1.90;;
19006;SDS011;9636;47.382;8.480;2024-03-23T10:03:28;5.97;;;1.70;;
19006;SDS011;9636;47.382;8.480;2024-03-23T10:06:02;4.43;;;1.70;;
19006;SDS011;9636;47.382;8.480;2024-03-23T10:08:30;5.97;;;1.80;;
19006;SDS011;9636;47.382;8.480;2024-03-23T10:10:56;4.30;;;1.87;;
19006;SDS011;9636;47.382;8.480;2024-03-23T10:13:26;6.37;;;1.87;;
19006;SDS011;9636;47.382;8.480;2024-03-23T10:15:54;6.00;;;1.77;;
19006;SDS011;9636;47.382;8.480;2024-03-23T10:18:23;8.23;;;2.10;;
19006;SDS011;9636;47.382;8.480;2024-03-23T10:20:50;6.33;;;1.67;;
19006;SDS011;9636;47.382;8.480;2024-03-23T10:23:19;6.83;;;1.90;;
19006;SDS011;9636;47.382;8.480;2024-03-23T10:25:46;7.63;;;2.07;;
19006;SDS011;9636;47.382;8.480;2024-03-23T10:28:12;7.20;;;1.67;;
19006;SDS011;9636;47.382;8.480;2024-03-23T10:30:38;4.70;;;2.00;;
19006;SDS011;9636;47.382;8.480;2024-03-23T10:33:08;7.67;;;1.83;;
19006;SDS011;9636;47.382;8.480;2024-03-23T10:35:36;7.53;;;1.90;;
19006;SDS011;9636;47.382;8.480;2024-03-23T10:38:03;17.00;;;2.17;;
19006;SDS011;9636;47.382;8.480;2024-03-23T10:40:33;10.33;;;1.90;;
19006;SDS011;9636;47.382;8.480;2024-03-23T10:42:59;4.60;;;1.60;;
19006;SDS011;9636;47.382;8.480;2024-03-23T10:45:27;4.53;;;1.37;;
19006;SDS011;9636;47.382;8.480;2024-03-23T10:47:52;6.17;;;1.97;;
19006;SDS011;9636;47.382;8.480;2024-03-23T10:50:19;5.17;;;1.90;;
19006;SDS011;9636;47.382;8.480;2024-03-23T10:52:46;5.07;;;1.60;;
19006;SDS011;9636;47.382;8.480;2024-03-23T10:55:14;4.60;;;1.50;;
19006;SDS011;9636;47.382;8.480;2024-03-23T10:57:45;4.30;;;1.70;;
19006;SDS011;9636;47.382;8.480;2024-03-23T11:00:16;8.40;;;1.80;;
19006;SDS011;9636;47.382;8.480;2024-03-23T11:02:43;4.03;;;1.40;;
19006;SDS011;9636;47.382;8.480;2024-03-23T11:07:53;2.50;;;1.10;;
19006;SDS011;9636;47.382;8.480;2024-03-23T11:10:24;4.77;;;1.80;;
19006;SDS011;9636;47.382;8.480;2024-03-23T11:12:52;6.47;;;1.60;;
19006;SDS011;9636;47.382;8.480;2024-03-23T11:15:19;5.53;;;1.47;;
19006;SDS011;9636;47.382;8.480;2024-03-23T11:17:56;6.17;;;1.60;;
19006;SDS011;9636;47.382;8.480;2024-03-23T11:20:32;6.33;;;1.60;;
19006;SDS011;9636;47.382;8.480;2024-03-23T11:22:59;8.07;;;1.87;;
19006;SDS011;9636;47.382;8.480;2024-03-23T11:25:26;3.23;;;1.10;;
19006;SDS011;9636;47.382;8.480;2024-03-23T11:27:55;4.67;;;1.70;;
19006;SDS011;9636;47.382;8.480;2024-03-23T11:30:23;2.77;;;1.17;;
19006;SDS011;9636;47.382;8.480;2024-03-23T11:32:50;5.30;;;1.30;;
19006;SDS011;9636;47.382;8.480;2024-03-23T11:35:25;3.47;;;1.07;;
19006;SDS011;9636;47.382;8.480;2024-03-23T11:38:03;5.30;;;1.40;;
19006;SDS011;9636;47.382;8.480;2024-03-23T11:40:31;2.03;;;1.10;;
19006;SDS011;9636;47.382;8.480;2024-03-23T11:42:59;5.17;;;1.30;;
19006;SDS011;9636;47.382;8.480;2024-03-23T11:45:27;4.57;;;1.20;;
19006;SDS011;9636;47.382;8.480;2024-03-23T11:48:06;3.03;;;1.20;;
19006;SDS011;9636;47.382;8.480;2024-03-23T11:50:35;3.60;;;1.10;;
19006;SDS011;9636;47.382;8.480;2024-03-23T11:53:06;5.63;;;1.53;;
19006;SDS011;9636;47.382;8.480;2024-03-23T11:55:41;3.70;;;1.30;;
19006;SDS011;9636;47.382;8.480;2024-03-23T11:58:09;4.23;;;1.50;;
19006;SDS011;9636;47.382;8.480;2024-03-23T12:00:38;4.53;;;1.33;;
19006;SDS011;9636;47.382;8.480;2024-03-23T12:03:04;5.00;;;1.27;;
19006;SDS011;9636;47.382;8.480;2024-03-23T12:05:32;5.30;;;1.60;;
19006;SDS011;9636;47.382;8.480;2024-03-23T12:10:48;4.93;;;1.20;;
19006;SDS011;9636;47.382;8.480;2024-03-23T12:13:17;3.50;;;1.10;;
19006;SDS011;9636;47.382;8.480;2024-03-23T12:15:45;4.30;;;1.20;;
19006;SDS011;9636;47.382;8.480;2024-03-23T12:18:11;2.83;;;1.30;;
19006;SDS011;9636;47.382;8.480;2024-03-23T12:20:39;3.93;;;1.37;;
19006;SDS011;9636;47.382;8.480;2024-03-23T12:23:08;2.73;;;1.20;;
19006;SDS011;9636;47.382;8.480;2024-03-23T12:25:36;3.37;;;1.37;;
19006;SDS011;9636;47.382;8.480;2024-03-23T12:28:03;7.20;;;1.43;;
19006;SDS011;9636;47.382;8.480;2024-03-23T12:30:32;4.60;;;1.33;;
19006;SDS011;9636;47.382;8.480;2024-03-23T12:32:59;6.40;;;1.60;;
19006;SDS011;9636;47.382;8.480;2024-03-23T12:35:25;3.53;;;1.40;;
19006;SDS011;9636;47.382;8.480;2024-03-23T12:37:51;4.73;;;1.30;;
19006;SDS011;9636;47.382;8.480;2024-03-23T12:40:18;4.60;;;1.53;;
19006;SDS011;9636;47.382;8.480;2024-03-23T12:42:44;4.53;;;1.33;;
19006;SDS011;9636;47.382;8.480;2024-03-23T12:45:11;4.33;;;1.40;;
19006;SDS011;9636;47.382;8.480;2024-03-23T12:47:38;4.87;;;1.40;;
19006;SDS011;9636;47.382;8.480;2024-03-23T12:50:05;4.33;;;1.43;;
19006;SDS011;9636;47.382;8.480;2024-03-23T12:52:31;6.30;;;1.23;;
19006;SDS011;9636;47.382;8.480;2024-03-23T12:54:58;4.87;;;1.60;;
19006;SDS011;9636;47.382;8.480;2024-03-23T12:57:24;4.57;;;1.47;;
19006;SDS011;9636;47.382;8.480;2024-03-23T12:59:52;5.10;;;1.70;;
19006;SDS011;9636;47.382;8.480;2024-03-23T13:02:18;4.13;;;1.20;;
19006;SDS011;9636;47.382;8.480;2024-03-23T13:04:49;5.53;;;1.70;;
19006;SDS011;9636;47.382;8.480;2024-03-23T13:07:17;5.23;;;1.10;;
19006;SDS011;9636;47.382;8.480;2024-03-23T13:09:43;7.87;;;1.70;;
19006;SDS011;9636;47.382;8.480;2024-03-23T13:12:10;7.57;;;1.67;;
19006;SDS011;9636;47.382;8.480;2024-03-23T13:14:37;4.13;;;1.40;;
19006;SDS011;9636;47.382;8.480;2024-03-23T13:17:04;2.93;;;1.27;;
19006;SDS011;9636;47.382;8.480;2024-03-23T13:19:30;6.17;;;1.60;;
19006;SDS011;9636;47.382;8.480;2024-03-23T13:21:58;4.23;;;1.30;;
19006;SDS011;9636;47.382;8.480;2024-03-23T13:24:25;3.67;;;1.40;;
19006;SDS011;9636;47.382;8.480;2024-03-23T13:26:52;3.17;;;1.10;;
19006;SDS011;9636;47.382;8.480;2024-03-23T13:29:19;3.50;;;1.30;;
19006;SDS011;9636;47.382;8.480;2024-03-23T13:31:47;19.20;;;1.63;;
19006;SDS011;9636;47.382;8.480;2024-03-23T13:34:13;19.77;;;2.10;;
19006;SDS011;9636;47.382;8.480;2024-03-23T13:36:40;18.33;;;1.67;;
19006;SDS011;9636;47.382;8.480;2024-03-23T13:39:08;20.77;;;2.37;;
19006;SDS011;9636;47.382;8.480;2024-03-23T13:41:40;10.40;;;1.10;;
19006;SDS011;9636;47.382;8.480;2024-03-23T13:44:07;4.77;;;1.63;;
19006;SDS011;9636;47.382;8.480;2024-03-23T13:46:35;7.13;;;1.23;;
19006;SDS011;9636;47.382;8.480;2024-03-23T13:49:01;4.97;;;1.60;;
19006;SDS011;9636;47.382;8.480;2024-03-23T13:51:28;4.17;;;1.67;;
19006;SDS011;9636;47.382;8.480;2024-03-23T13:53:54;6.83;;;1.63;;
19006;SDS011;9636;47.382;8.480;2024-03-23T13:56:23;9.20;;;1.97;;
19006;SDS011;9636;47.382;8.480;2024-03-23T13:58:49;4.93;;;1.40;;
19006;SDS011;9636;47.382;8.480;2024-03-23T14:01:16;6.03;;;1.37;;
19006;SDS011;9636;47.382;8.480;2024-03-23T14:03:42;5.40;;;1.37;;
19006;SDS011;9636;47.382;8.480;2024-03-23T14:06:10;7.47;;;1.67;;
19006;SDS011;9636;47.382;8.480;2024-03-23T14:08:36;8.80;;;1.30;;
19006;SDS011;9636;47.382;8.480;2024-03-23T14:11:04;5.37;;;1.60;;
19006;SDS011;9636;47.382;8.480;2024-03-23T14:13:31;2.20;;;1.27;;
19006;SDS011;9636;47.382;8.480;2024-03-23T14:15:58;3.50;;;1.30;;
19006;SDS011;9636;47.382;8.480;2024-03-23T14:18:24;4.10;;;1.30;;
19006;SDS011;9636;47.382;8.480;2024-03-23T14:20:52;6.83;;;1.40;;
19006;SDS011;9636;47.382;8.480;2024-03-23T14:23:23;3.80;;;1.30;;
19006;SDS011;9636;47.382;8.480;2024-03-23T14:25:52;7.00;;;1.43;;
19006;SDS011;9636;47.382;8.480;2024-03-23T14:28:19;3.77;;;1.53;;
19006;SDS011;9636;47.382;8.480;2024-03-23T14:30:48;2.43;;;1.27;;
19006;SDS011;9636;47.382;8.480;2024-03-23T14:33:14;4.40;;;1.20;;
19006;SDS011;9636;47.382;8.480;2024-03-23T14:35:41;3.23;;;1.20;;
19006;SDS011;9636;47.382;8.480;2024-03-23T14:38:07;3.10;;;1.23;;
19006;SDS011;9636;47.382;8.480;2024-03-23T14:40:34;6.20;;;1.40;;
19006;SDS011;9636;47.382;8.480;2024-03-23T14:43:00;4.40;;;1.53;;
19006;SDS011;9636;47.382;8.480;2024-03-23T14:45:27;8.30;;;2.23;;
19006;SDS011;9636;47.382;8.480;2024-03-23T14:47:54;6.20;;;1.33;;
19006;SDS011;9636;47.382;8.480;2024-03-23T14:50:23;1.53;;;1.07;;
19006;SDS011;9636;47.382;8.480;2024-03-23T14:52:49;3.30;;;1.00;;
19006;SDS011;9636;47.382;8.480;2024-03-23T14:55:16;5.07;;;1.53;;
19006;SDS011;9636;47.382;8.480;2024-03-23T14:57:42;4.73;;;1.10;;
19006;SDS011;9636;47.382;8.480;2024-03-23T15:00:09;2.63;;;1.10;;
19006;SDS011;9636;47.382;8.480;2024-03-23T15:02:37;2.83;;;0.80;;
19006;SDS011;9636;47.382;8.480;2024-03-23T15:05:05;3.53;;;1.00;;
19006;SDS011;9636;47.382;8.480;2024-03-23T15:07:34;3.33;;;1.00;;
19006;SDS011;9636;47.382;8.480;2024-03-23T15:10:01;4.63;;;1.20;;
19006;SDS011;9636;47.382;8.480;2024-03-23T15:12:29;5.97;;;1.13;;
19006;SDS011;9636;47.382;8.480;2024-03-23T15:14:58;2.20;;;1.00;;
19006;SDS011;9636;47.382;8.480;2024-03-23T15:17:23;4.90;;;1.37;;
19006;SDS011;9636;47.382;8.480;2024-03-23T15:19:50;3.57;;;1.40;;
19006;SDS011;9636;47.382;8.480;2024-03-23T15:22:17;4.47;;;1.10;;
19006;SDS011;9636;47.382;8.480;2024-03-23T15:24:44;3.80;;;1.20;;
19006;SDS011;9636;47.382;8.480;2024-03-23T15:27:10;4.03;;;0.97;;
19006;SDS011;9636;47.382;8.480;2024-03-23T15:29:36;3.20;;;1.00;;
19006;SDS011;9636;47.382;8.480;2024-03-23T15:32:03;3.50;;;1.10;;
19006;SDS011;9636;47.382;8.480;2024-03-23T15:34:30;3.70;;;1.27;;
19006;SDS011;9636;47.382;8.480;2024-03-23T15:36:56;4.03;;;1.20;;
19006;SDS011;9636;47.382;8.480;2024-03-23T15:39:24;5.27;;;1.30;;
19006;SDS011;9636;47.382;8.480;2024-03-23T15:41:50;3.43;;;1.10;;
19006;SDS011;9636;47.382;8.480;2024-03-23T15:44:19;4.90;;;1.30;;
19006;SDS011;9636;47.382;8.480;2024-03-23T15:46:45;1.37;;;0.80;;
19006;SDS011;9636;47.382;8.480;2024-03-23T15:49:11;3.93;;;1.17;;
19006;SDS011;9636;47.382;8.480;2024-03-23T15:51:37;2.90;;;1.07;;
19006;SDS011;9636;47.382;8.480;2024-03-23T15:54:06;4.93;;;1.10;;
19006;SDS011;9636;47.382;8.480;2024-03-23T15:56:34;4.03;;;1.10;;
19006;SDS011;9636;47.382;8.480;2024-03-23T15:59:01;2.60;;;0.97;;
19006;SDS011;9636;47.382;8.480;2024-03-23T16:01:30;3.53;;;0.87;;